Northern Maine Medical Center (FTK)
Ft. Kent, ME
Field Elevation: 610
Lat: 47°16.09N  Long: 68°35.54W
   
    
Weather Advisories
2018-05-20   19:02 Z
Altimeter 29.80" Hg
Wind 050° @ 9 KT
Gusts 15 KT
Visibility 10 SM
Ceiling --
Temperature 16° C (61° F)
Dewpoint 2° C (36° F)
Relative Humidity 42%
Density Altitude --
Condensation Altitude 7,300 feet
Wind and Runways
Indicated Runway = 00
Headwind = 6 kt
Crosswind = 7 kt
History
 
 
 
More Info
All DigiWx sites map
 
NOAA Forecast
 
Airport IQ 5010
(KBXM) Brunswick, ME
(39N) Princeton, NJ
 
about DigiWx
 
FAA Disclaimer: The data displayed is for advisory purposes only and is not to be used for flight planning or operations. For official data, please call (not available) to hear the current automated AWOS voice message.
  METAR FTK 201902Z AUTO 05009G15KT VIS 10 SM 16/02 A2980